ダッカ の空港の天気 - METARとTAF

シャージャラル国際空港(ダッカ) ( VGHS / DAC ) - バングラデシュ ダッカ
飛行場実況気象(Metar)
観測時間09/25 06:30 BDT (09/25 00:30 UTC)
風向・風速東 3m/s
視程3500m
天気現象煙霧
全天の4割程度の雲 雲底高度 3050m
気温28℃
湿度79%
気圧1005hPa
METARVGHS 250030Z 08006KT 3500 HZ SCT100 28/24 Q1005 NOSIG
過去の天気等 Google飛行場航空写真 Wunderground天気予報

過去48時間のMETAR

飛行場予報(TAF)
発表時間: 9/25 05:00 BDT (9/24 23:00 UTC)
予報対象時間: 25日6時 BDT ~ 26日12時 BDT
風向・風速南 3m/s
視程3500m
天気現象煙霧
全天の4割程度の雲 雲底高度 370m
全天の4割程度の雲 雲底高度 3050m
25日7時 BDT ~ 25日9時 BDT に徐々に
風向・風速東南東 4m/s
視程4000m
天気現象煙霧
全天の4割程度の雲 雲底高度 460m
全天の8割程度の雲 雲底高度 3050m
25日10時 BDT ~ 25日18時 BDT に一時的に
風向・風速南 10m/s
視程2000m
26日0時 BDT ~ 26日2時 BDT に徐々に
風向・風速東 3m/s
視程3500m
天気現象煙霧
全天の4割程度の雲 雲底高度 430m
全天の8割程度の雲 雲底高度 3050m
TAF VGHS 242300Z 2500/2606 18005KT 3500 HZ SCT012 SCT100
BECMG 2501/2503 12008KT 4000 HZ SCT015 BKN100
TEMPO 2504/2512 17020KT 2000 RA/TSRA BKN008 FEW025CB OVC090
BECMG 2518/2520 09006KT 3500 HZ SCT014 BKN100